Time;durP1;ratioP1;P1;durP2;ratioP2;P2;SDS_P1;SDS_P2;PMS_P1;PMS_P2;Temp;Humidity;BMP_temperature;BMP_pressure;BME280_temperature;BME280_humidity;BME280_pressure;Samples;Min_cycle;Max_cycle;Signal;HPM_P1;HPM_P2
2021/07/10 15:56:51;;;;;;;8.67;7.30;;;;;;;25.51;42.48;100251.38;5139802;27;20391;-74
2021/07/10 15:59:18;;;;;;;7.73;6.77;;;;;;;25.18;43.58;100250.88;5110026;27;20518;-73
2021/07/10 16:01:47;;;;;;;7.53;6.93;;;;;;;25.04;43.88;100241.25;5114049;27;20518;-73
2021/07/10 16:04:15;;;;;;;9.07;8.10;;;;;;;24.86;43.54;100255.00;5100533;28;20455;-73
2021/07/10 16:06:42;;;;;;;9.33;7.83;;;;;;;25.17;42.99;100243.75;5109111;27;20487;-74
2021/07/10 16:09:12;;;;;;;7.87;7.07;;;;;;;25.63;43.25;100251.38;5110513;28;20479;-73
2021/07/10 16:11:39;;;;;;;9.70;7.37;;;;;;;25.84;43.38;100244.44;5113561;27;20862;-73
2021/07/10 16:14:07;;;;;;;7.73;6.23;;;;;;;25.90;43.39;100243.44;5114790;28;20514;-73
2021/07/10 16:16:33;;;;;;;10.37;7.10;;;;;;;25.86;44.09;100245.84;5115091;27;20538;-73
2021/07/10 16:19:00;;;;;;;9.33;7.87;;;;;;;25.41;44.98;100241.03;5117087;28;20481;-73
2021/07/10 16:21:27;;;;;;;8.67;7.80;;;;;;;25.44;45.40;100245.22;5117213;27;20983;-72
2021/07/10 16:23:54;;;;;;;9.10;8.17;;;;;;;25.64;45.12;100239.34;5109631;28;20981;-73
2021/07/10 16:26:20;;;;;;;8.47;7.70;;;;;;;25.93;45.56;100234.75;5114299;28;20514;-73
2021/07/10 16:28:47;;;;;;;9.20;8.40;;;;;;;25.33;45.70;100239.50;5099888;28;20538;-73
2021/07/10 16:31:15;;;;;;;8.13;7.33;;;;;;;25.19;45.52;100235.31;5116743;27;20510;-74
2021/07/10 16:33:42;;;;;;;9.73;8.83;;;;;;;25.15;44.65;100226.75;5116780;28;20489;-74
2021/07/10 16:36:08;;;;;;;9.03;8.10;;;;;;;25.28;45.46;100220.22;5102850;27;20526;-74
2021/07/10 16:38:35;;;;;;;8.53;7.73;;;;;;;25.48;44.07;100225.31;5116928;28;20994;-74
2021/07/10 16:41:02;;;;;;;9.00;8.00;;;;;;;25.34;43.68;100218.44;5114027;28;20487;-74
2021/07/10 16:43:28;;;;;;;13.20;8.60;;;;;;;25.50;44.80;100223.19;5116556;28;20478;-74
2021/07/10 16:45:56;;;;;;;9.33;8.30;;;;;;;25.52;44.67;100225.69;5116716;27;20553;-74
2021/07/10 16:48:24;;;;;;;8.20;7.50;;;;;;;25.24;45.04;100219.00;5100599;28;20454;-74
2021/07/10 16:50:51;;;;;;;8.70;7.90;;;;;;;25.06;45.55;100232.81;5114255;27;20467;-74
2021/07/10 16:53:18;;;;;;;8.67;7.77;;;;;;;24.83;45.87;100226.25;5117195;28;20547;-74
2021/07/10 16:55:45;;;;;;;10.13;7.63;;;;;;;24.92;46.22;100227.53;5115482;27;20555;-75
2021/07/10 16:58:12;;;;;;;11.40;8.77;;;;;;;25.10;45.82;100220.31;5122086;28;20471;-74
2021/07/10 17:00:39;;;;;;;8.97;8.07;;;;;;;25.16;45.27;100222.09;5108702;27;20547;-74
2021/07/10 17:03:06;;;;;;;10.70;8.10;;;;;;;24.93;43.71;100226.50;5116169;28;20554;-74
2021/07/10 17:07:31;;;;;;;8.13;7.00;;;;;;;24.70;46.47;100232.72;5140002;27;20570;-75
2021/07/10 17:09:57;;;;;;;9.20;8.30;;;;;;;24.51;46.80;100220.19;5126867;27;20530;-75
2021/07/10 17:12:24;;;;;;;10.30;8.37;;;;;;;24.36;47.03;100224.19;5118721;27;20498;-75
2021/07/10 17:14:51;;;;;;;9.40;8.50;;;;;;;24.36;48.62;100224.19;5138329;28;20477;-75
2021/07/10 17:17:17;;;;;;;9.40;8.60;;;;;;;24.10;49.07;100228.13;5138658;27;20907;-75
2021/07/10 17:19:44;;;;;;;9.03;8.23;;;;;;;24.01;49.98;100221.31;5139794;28;20466;-74
2021/07/10 17:26:24;;;;;;;11.90;9.73;;;;;;;23.49;52.77;100225.25;5095587;27;20664;-73
2021/07/10 17:28:51;;;;;;;9.70;8.80;;;;;;;23.30;52.65;100235.31;5078577;28;20513;-72
2021/07/10 17:31:21;;;;;;;10.43;9.43;;;;;;;23.24;53.29;100236.19;5078004;28;20936;-72
2021/07/10 17:33:48;;;;;;;9.73;8.83;;;;;;;23.25;53.74;100235.13;5074917;28;20473;-73
2021/07/10 17:36:15;;;;;;;10.50;8.93;;;;;;;23.36;53.91;100230.00;5078285;28;20471;-73
2021/07/10 17:38:41;;;;;;;11.20;8.90;;;;;;;23.37;53.73;100231.69;5082914;28;20476;-73
2021/07/10 17:41:08;;;;;;;13.20;10.10;;;;;;;23.27;54.40;100224.84;5068713;28;20547;-73
2021/07/10 17:43:36;;;;;;;10.57;9.57;;;;;;;23.11;54.58;100226.25;5058206;28;20464;-73
2021/07/10 17:46:03;;;;;;;10.27;9.27;;;;;;;23.17;54.95;100229.97;5065986;28;20587;-72
2021/07/10 17:48:30;;;;;;;10.23;9.33;;;;;;;23.26;54.40;100227.78;5060521;28;20459;-72
2021/07/10 17:50:56;;;;;;;10.10;9.20;;;;;;;22.96;56.01;100230.34;5059920;28;20532;-73
2021/07/10 17:53:23;;;;;;;15.33;10.30;;;;;;;23.03;55.81;100228.38;5065011;28;20480;-73
2021/07/10 17:55:51;;;;;;;11.10;9.83;;;;;;;22.91;56.03;100226.41;5066125;28;20493;-73
2021/07/10 17:58:18;;;;;;;9.87;8.97;;;;;;;22.93;55.80;100228.88;5063156;28;20438;-73
2021/07/10 18:00:46;;;;;;;12.23;10.97;;;;;;;22.98;55.42;100230.94;5057507;28;20576;-74
2021/07/10 18:03:13;;;;;;;11.07;10.07;;;;;;;23.05;55.32;100229.00;5056223;28;20485;-73
2021/07/10 18:05:39;;;;;;;10.30;9.30;;;;;;;23.10;55.22;100232.75;5057729;28;20512;-73
2021/07/10 18:08:06;;;;;;;13.13;9.67;;;;;;;22.87;56.31;100235.25;5058174;28;20985;-73
2021/07/10 18:10:33;;;;;;;10.83;9.60;;;;;;;22.89;56.22;100238.56;5060125;28;20492;-73
2021/07/10 18:13:00;;;;;;;10.30;9.37;;;;;;;22.98;56.38;100233.69;5077111;28;20475;-73
2021/07/10 18:15:26;;;;;;;10.60;9.60;;;;;;;22.95;56.48;100232.25;5077619;28;20995;-73
2021/07/10 18:17:54;;;;;;;11.83;10.37;;;;;;;22.85;56.53;100240.09;5076867;28;20619;-73
2021/07/10 18:20:21;;;;;;;11.70;10.57;;;;;;;22.83;56.93;100250.34;5082301;27;20481;-73
2021/07/10 18:22:48;;;;;;;11.47;10.37;;;;;;;22.75;57.69;100240.56;5080587;28;20480;-73
2021/07/10 18:25:15;;;;;;;13.30;11.93;;;;;;;22.80;57.64;100245.38;5074202;28;20761;-73
2021/07/10 18:27:42;;;;;;;12.90;10.60;;;;;;;22.70;58.03;100248.56;5075057;28;20476;-73
2021/07/10 18:30:12;;;;;;;13.10;11.60;;;;;;;22.79;57.67;100251.88;5076289;28;20540;-72
2021/07/10 18:32:38;;;;;;;13.03;11.73;;;;;;;22.65;58.64;100251.13;5077459;28;21347;-72
2021/07/10 18:35:10;;;;;;;14.93;10.97;;;;;;;22.61;58.34;100242.56;5076484;28;20483;-72
2021/07/10 18:37:37;;;;;;;11.40;10.30;;;;;;;22.64;58.27;100247.56;5065601;28;20661;-72
2021/07/10 18:40:05;;;;;;;10.83;9.77;;;;;;;22.77;57.86;100245.81;5063099;28;20484;-72
2021/07/10 18:42:31;;;;;;;10.83;9.73;;;;;;;22.75;58.32;100249.56;5044001;28;20533;-72
2021/07/10 18:44:58;;;;;;;11.00;10.00;;;;;;;22.75;58.39;100248.75;5044072;28;20481;-72
2021/07/10 18:47:24;;;;;;;11.57;10.40;;;;;;;22.56;58.28;100242.38;5042481;28;20481;-72
2021/07/10 18:49:51;;;;;;;11.43;10.43;;;;;;;22.52;58.90;100241.16;5043510;28;20518;-73
2021/07/10 18:52:19;;;;;;;12.50;11.17;;;;;;;22.51;58.79;100237.56;5037509;28;20498;-72
2021/07/10 18:54:48;;;;;;;13.17;11.10;;;;;;;22.52;59.41;100235.72;5040580;28;20481;-72
2021/07/10 18:57:15;;;;;;;11.77;10.83;;;;;;;22.48;59.42;100237.19;5054569;28;20481;-72
2021/07/10 18:59:41;;;;;;;11.73;10.60;;;;;;;22.41;59.63;100237.25;5045510;28;20497;-72
2021/07/10 19:02:11;;;;;;;11.87;10.67;;;;;;;22.30;60.56;100246.94;5042804;28;20498;-72
2021/07/10 19:04:38;;;;;;;11.63;9.87;;;;;;;22.29;60.32;100234.38;5043105;28;20513;-72
2021/07/10 19:07:04;;;;;;;11.87;10.70;;;;;;;22.19;60.67;100247.59;5059601;28;20525;-72
2021/07/10 19:09:32;;;;;;;11.40;10.40;;;;;;;22.27;60.64;100239.22;5062547;28;20509;-73
2021/07/10 19:11:59;;;;;;;11.30;10.20;;;;;;;22.17;60.60;100238.81;5062824;28;20549;-73
2021/07/10 19:14:26;;;;;;;13.63;10.37;;;;;;;22.03;61.09;100240.75;5063313;28;20493;-73
2021/07/10 19:16:53;;;;;;;11.87;10.77;;;;;;;22.13;60.80;100243.88;5061926;28;20497;-73
2021/07/10 19:19:19;;;;;;;11.50;10.50;;;;;;;22.24;60.90;100238.75;5063127;28;20445;-72
2021/07/10 19:21:46;;;;;;;11.20;10.20;;;;;;;22.25;59.69;100244.00;5062439;28;21012;-72
2021/07/10 19:24:15;;;;;;;12.10;10.80;;;;;;;22.19;60.12;100240.25;5057652;28;20453;-72
2021/07/10 19:26:43;;;;;;;11.63;10.30;;;;;;;22.25;59.77;100240.44;5068145;28;20488;-72
2021/07/10 19:29:10;;;;;;;11.63;10.53;;;;;;;22.11;60.14;100242.38;5083539;28;20441;-72
2021/07/10 19:31:38;;;;;;;11.60;10.50;;;;;;;22.09;60.45;100250.78;5063763;28;20516;-73
2021/07/10 19:34:05;;;;;;;11.33;10.23;;;;;;;22.09;60.33;100241.78;5061637;28;20492;-73
2021/07/10 19:36:32;;;;;;;12.00;11.00;;;;;;;21.96;60.77;100245.38;5062735;28;20903;-73
2021/07/10 19:38:58;;;;;;;13.73;10.83;;;;;;;21.99;60.59;100244.94;5062917;28;20476;-74
2021/07/10 19:41:25;;;;;;;11.70;10.73;;;;;;;21.94;60.94;100256.50;5052279;28;20572;-74
2021/07/10 19:43:53;;;;;;;14.23;11.00;;;;;;;22.01;60.73;100253.72;5044475;28;20975;-74
2021/07/10 19:46:20;;;;;;;13.87;11.73;;;;;;;21.98;60.85;100248.75;5055609;28;20510;-73
2021/07/10 19:48:46;;;;;;;13.57;12.33;;;;;;;21.96;61.16;100256.25;5050978;28;20986;-74
2021/07/10 19:51:14;;;;;;;15.03;11.50;;;;;;;21.91;61.25;100261.56;5062258;28;20609;-73
2021/07/10 19:53:44;;;;;;;12.10;10.97;;;;;;;21.86;61.31;100269.53;5060998;28;20460;-73
2021/07/10 19:56:11;;;;;;;12.70;11.60;;;;;;;21.85;61.23;100267.84;5051388;28;20479;-73
2021/07/10 19:58:38;;;;;;;13.73;12.43;;;;;;;21.81;61.76;100267.44;5062779;28;20468;-73
2021/07/10 20:01:06;;;;;;;13.40;12.00;;;;;;;21.76;62.51;100275.41;5062132;28;20499;-73
2021/07/10 20:03:33;;;;;;;12.27;11.23;;;;;;;21.71;62.14;100273.31;5061489;28;20496;-74
2021/07/10 20:05:59;;;;;;;14.17;12.77;;;;;;;21.58;62.32;100270.63;5057094;28;20480;-73
2021/07/10 20:08:26;;;;;;;12.50;11.30;;;;;;;21.56;62.63;100273.56;5062019;28;20882;-74
2021/07/10 20:10:53;;;;;;;12.10;10.50;;;;;;;21.60;62.33;100265.81;5052736;28;20497;-74
2021/07/10 20:13:19;;;;;;;11.83;10.73;;;;;;;21.48;61.86;100262.06;5041266;28;20466;-73
2021/07/10 20:15:46;;;;;;;13.57;11.70;;;;;;;21.35;62.71;100274.63;5031484;28;20995;-74
2021/07/10 20:18:14;;;;;;;11.70;10.50;;;;;;;21.20;63.38;100274.84;5046898;28;20461;-74
2021/07/10 20:20:44;;;;;;;11.97;10.87;;;;;;;21.11;63.41;100277.94;5045944;28;20475;-75
2021/07/10 20:23:11;;;;;;;14.00;12.53;;;;;;;21.11;63.43;100273.38;5059391;28;20544;-74
2021/07/10 20:25:38;;;;;;;12.90;11.77;;;;;;;21.07;63.61;100277.53;5055739;28;20500;-74
2021/07/10 20:28:05;;;;;;;12.73;11.60;;;;;;;21.04;63.75;100276.09;5069820;28;20492;-74
2021/07/10 20:30:32;;;;;;;14.57;13.07;;;;;;;21.03;63.93;100279.84;5071209;28;20540;-74
2021/07/10 20:32:59;;;;;;;12.10;11.00;;;;;;;20.99;63.69;100275.06;5062033;28;20449;-74
2021/07/10 20:35:27;;;;;;;13.30;11.33;;;;;;;20.93;64.16;100276.69;5061024;28;20544;-73
2021/07/10 20:37:54;;;;;;;13.50;12.27;;;;;;;20.88;64.15;100277.34;5062945;28;20433;-73
2021/07/10 20:40:22;;;;;;;18.27;13.40;;;;;;;20.81;64.52;100281.91;5055689;28;20480;-73
2021/07/10 20:42:49;;;;;;;14.00;12.70;;;;;;;20.73;65.04;100287.56;5039576;28;20501;-73
2021/07/10 20:45:15;;;;;;;16.50;14.87;;;;;;;20.66;65.34;100284.00;5040077;28;20450;-74
2021/07/10 20:47:42;;;;;;;16.63;15.03;;;;;;;20.64;65.55;100284.19;5041346;28;20515;-74
2021/07/10 20:50:11;;;;;;;15.17;13.67;;;;;;;20.61;66.30;100278.31;5044463;28;21058;-74
2021/07/10 20:52:40;;;;;;;15.73;14.23;;;;;;;20.63;66.04;100279.78;5048837;28;20532;-74
2021/07/10 20:55:08;;;;;;;14.83;13.63;;;;;;;20.63;66.33;100278.97;5080379;28;20476;-74
2021/07/10 20:57:35;;;;;;;15.00;13.43;;;;;;;20.56;66.80;100276.19;5075736;28;20552;-73
2021/07/10 21:00:01;;;;;;;17.80;16.00;;;;;;;20.44;66.64;100273.25;5079612;28;20517;-74
2021/07/10 21:02:28;;;;;;;16.63;14.73;;;;;;;20.40;67.17;100280.13;5074686;28;20488;-73
2021/07/10 21:04:55;;;;;;;17.03;15.43;;;;;;;20.31;67.36;100270.47;5078996;28;20516;-74
2021/07/10 21:07:21;;;;;;;17.03;15.33;;;;;;;20.27;68.31;100270.06;5072110;28;20544;-74
2021/07/10 21:09:49;;;;;;;17.70;16.03;;;;;;;20.22;68.25;100275.25;5059991;28;20456;-73
2021/07/10 21:12:16;;;;;;;17.77;16.17;;;;;;;20.20;68.25;100271.09;5067594;28;20493;-73
2021/07/10 21:14:43;;;;;;;16.40;14.80;;;;;;;20.12;68.58;100272.94;5064095;28;20502;-73
2021/07/10 21:17:10;;;;;;;17.70;15.40;;;;;;;20.12;69.12;100270.22;5078840;28;21020;-73
2021/07/10 21:19:36;;;;;;;16.30;14.70;;;;;;;20.12;69.03;100269.41;5077035;28;20488;-73
2021/07/10 21:22:04;;;;;;;17.53;16.00;;;;;;;20.09;69.08;100269.78;5065653;28;20476;-73
2021/07/10 21:24:30;;;;;;;17.03;15.37;;;;;;;20.05;69.54;100271.22;5077732;28;20488;-73
2021/07/10 21:26:59;;;;;;;17.10;15.60;;;;;;;20.10;69.13;100266.03;5061378;28;20484;-73
2021/07/10 21:29:25;;;;;;;17.10;15.40;;;;;;;20.07;68.97;100263.75;5059982;28;20463;-73
2021/07/10 21:31:52;;;;;;;18.83;17.13;;;;;;;20.00;69.24;100258.28;5073028;28;20580;-73
2021/07/10 21:34:19;;;;;;;18.47;16.67;;;;;;;19.99;69.28;100258.47;5059778;28;20537;-73
2021/07/10 21:36:46;;;;;;;19.80;17.90;;;;;;;19.94;69.08;100262.63;5060381;28;20473;-73
2021/07/10 21:39:12;;;;;;;18.57;16.77;;;;;;;19.89;69.39;100265.13;5060686;28;20935;-73
2021/07/10 21:41:39;;;;;;;18.03;16.33;;;;;;;19.79;69.80;100256.53;5063886;28;20473;-73
2021/07/10 21:44:07;;;;;;;18.23;16.67;;;;;;;19.81;69.70;100261.72;5040520;28;20521;-73
2021/07/10 21:46:35;;;;;;;17.30;15.70;;;;;;;19.75;69.95;100260.66;5066146;28;20500;-73
2021/07/10 21:49:03;;;;;;;17.57;15.80;;;;;;;19.68;70.42;100255.16;5079640;28;20488;-73
2021/07/10 21:51:30;;;;;;;18.27;16.10;;;;;;;19.65;70.93;100260.16;5064012;28;20480;-73
2021/07/10 21:53:56;;;;;;;18.23;16.43;;;;;;;19.63;70.46;100263.06;5060922;28;20557;-73
2021/07/10 21:56:23;;;;;;;16.93;15.33;;;;;;;19.61;70.37;100253.44;5065225;28;20592;-73
2021/07/10 21:58:49;;;;;;;16.90;15.30;;;;;;;19.53;70.51;100252.59;5076066;28;21004;-73
2021/07/10 22:01:32;;;;;;;17.27;14.80;;;;;;;19.66;70.52;100259.94;5071772;28;20476;-73
2021/07/10 22:04:04;;;;;;;16.80;15.10;;;;;;;19.61;70.37;100257.00;5070135;28;20495;-73
2021/07/10 22:06:31;;;;;;;17.47;15.77;;;;;;;19.62;70.27;100255.97;5079491;28;20587;-73
2021/07/10 22:09:00;;;;;;;16.40;14.70;;;;;;;19.48;70.83;100246.09;5063874;28;20524;-73
2021/07/10 22:11:27;;;;;;;18.53;15.17;;;;;;;19.33;71.30;100252.44;5074046;28;20472;-73
2021/07/10 22:13:54;;;;;;;17.13;15.60;;;;;;;19.40;70.91;100244.34;5064831;28;20487;-73
2021/07/10 22:16:20;;;;;;;15.80;14.30;;;;;;;19.43;70.69;100254.81;5073315;28;20564;-73
2021/07/10 22:18:48;;;;;;;17.20;15.37;;;;;;;19.41;70.59;100245.19;5064087;28;20487;-73
2021/07/10 22:21:16;;;;;;;16.33;14.87;;;;;;;19.35;70.76;100257.66;5080524;28;20480;-73
2021/07/10 22:23:43;;;;;;;16.33;14.80;;;;;;;19.32;70.72;100244.50;5080783;28;20473;-73
2021/07/10 22:26:11;;;;;;;15.77;14.37;;;;;;;19.32;70.59;100245.34;5062282;28;20494;-73
2021/07/10 22:28:39;;;;;;;16.13;14.63;;;;;;;19.43;70.25;100249.38;5064404;28;20465;-73
2021/07/10 22:31:06;;;;;;;17.10;15.30;;;;;;;19.21;70.67;100254.03;5073826;28;20485;-73
2021/07/10 22:33:33;;;;;;;17.33;15.53;;;;;;;19.13;70.98;100249.59;5081942;28;20899;-73
2021/07/10 22:36:02;;;;;;;17.00;15.40;;;;;;;18.99;71.74;100253.22;5082727;28;20583;-74
2021/07/10 22:38:28;;;;;;;16.83;15.30;;;;;;;19.13;71.13;100248.75;5070957;28;20725;-75
2021/07/10 22:40:55;;;;;;;18.27;16.33;;;;;;;19.05;71.46;100255.16;5062935;28;20488;-74
2021/07/10 22:43:22;;;;;;;17.53;15.73;;;;;;;18.96;71.68;100250.91;5064298;28;20476;-75
2021/07/10 22:45:49;;;;;;;17.00;15.40;;;;;;;18.86;72.19;100255.81;5071776;28;20472;-74
2021/07/10 22:48:17;;;;;;;18.20;16.30;;;;;;;18.83;72.13;100248.09;5062138;28;20445;-74
2021/07/10 22:50:43;;;;;;;19.43;17.10;;;;;;;18.74;72.60;100247.34;5063878;28;20497;-74
2021/07/10 22:53:12;;;;;;;18.73;17.03;;;;;;;18.74;72.78;100250.88;5066886;28;20452;-74
2021/07/10 22:55:39;;;;;;;17.03;15.30;;;;;;;18.77;72.16;100242.38;5065408;28;20568;-75
2021/07/10 22:58:06;;;;;;;22.10;17.03;;;;;;;18.67;72.58;100250.00;5068476;28;20465;-74
2021/07/10 23:00:33;;;;;;;19.70;17.73;;;;;;;18.66;72.88;100253.72;5082382;28;20517;-73
2021/07/10 23:03:00;;;;;;;19.40;17.70;;;;;;;18.61;72.86;100256.19;5065420;28;20540;-74
2021/07/10 23:05:27;;;;;;;20.33;18.43;;;;;;;18.57;72.84;100250.31;5063622;28;20477;-74
2021/07/10 23:07:54;;;;;;;19.40;17.60;;;;;;;18.54;72.85;100250.72;5073036;28;20487;-73
2021/07/10 23:10:22;;;;;;;19.17;17.27;;;;;;;18.52;72.86;100251.91;5062187;28;20459;-73
2021/07/10 23:12:49;;;;;;;18.60;16.70;;;;;;;18.52;72.83;100251.91;5066623;28;20472;-74
2021/07/10 23:15:15;;;;;;;18.20;16.47;;;;;;;18.67;72.34;100246.47;5075321;28;20547;-74
2021/07/10 23:17:42;;;;;;;20.80;18.80;;;;;;;18.81;71.74;100245.53;5082088;28;20436;-74
2021/07/10 23:20:10;;;;;;;19.53;17.73;;;;;;;18.84;71.47;100247.06;5081475;28;20511;-74
2021/07/10 23:22:36;;;;;;;19.47;17.40;;;;;;;18.64;71.83;100261.19;5074694;28;20509;-73
2021/07/10 23:25:05;;;;;;;20.83;18.80;;;;;;;18.62;72.37;100253.28;5071872;28;20547;-73
2021/07/10 23:27:33;;;;;;;19.30;17.40;;;;;;;18.57;72.79;100255.72;5063390;28;21020;-74
2021/07/10 23:30:02;;;;;;;18.83;17.13;;;;;;;18.62;71.96;100258.69;5066432;28;20520;-74
2021/07/10 23:32:35;;;;;;;18.30;16.57;;;;;;;18.55;71.93;100252.38;5080603;28;20702;-74
2021/07/10 23:35:03;;;;;;;20.40;18.60;;;;;;;18.46;72.45;100248.13;5074884;28;20528;-73
2021/07/10 23:37:30;;;;;;;20.20;18.30;;;;;;;18.31;73.15;100248.16;5081440;28;21028;-73
2021/07/10 23:39:56;;;;;;;20.40;18.40;;;;;;;18.21;73.87;100251.19;5061743;28;20505;-74
2021/07/10 23:42:23;;;;;;;20.87;18.97;;;;;;;18.12;74.32;100249.59;5062397;28;20501;-72
2021/07/10 23:44:51;;;;;;;21.67;19.57;;;;;;;18.28;73.55;100250.41;5063126;28;20460;-74
2021/07/10 23:47:18;;;;;;;20.63;18.70;;;;;;;18.20;73.50;100248.66;5062488;28;20564;-73
2021/07/10 23:49:44;;;;;;;21.10;19.00;;;;;;;18.27;73.24;100249.59;5070841;28;20481;-74
2021/07/10 23:52:11;;;;;;;20.87;18.90;;;;;;;18.22;73.76;100252.03;5082523;28;20476;-73
2021/07/10 23:54:38;;;;;;;19.73;17.73;;;;;;;18.11;74.37;100241.72;5081825;28;20551;-73
2021/07/10 23:57:04;;;;;;;21.43;19.33;;;;;;;18.08;74.29;100250.19;5072018;28;20469;-73
2021/07/10 23:59:31;;;;;;;19.20;17.40;;;;;;;18.11;74.09;100253.34;5081142;28;20468;-73
